createdAt,value
2022-09-06T00:00:11.924Z,19.55
2022-09-06T00:01:11.924Z,19.58
2022-09-06T00:02:12.111Z,19.57
2022-09-06T00:03:11.937Z,19.57
2022-09-06T00:04:15.151Z,19.55
2022-09-06T00:05:11.902Z,19.54
2022-09-06T00:06:11.847Z,19.54
2022-09-06T00:07:11.936Z,19.54
2022-09-06T00:08:11.924Z,19.54
2022-09-06T00:09:11.800Z,19.53
2022-09-06T00:10:11.806Z,19.50
2022-09-06T00:11:11.836Z,19.48
2022-09-06T00:12:11.952Z,19.47
2022-09-06T00:13:11.852Z,19.43
2022-09-06T00:14:11.827Z,19.40
2022-09-06T00:15:11.744Z,19.40
2022-09-06T00:16:11.774Z,19.39
2022-09-06T00:17:11.843Z,19.39
2022-09-06T00:18:11.973Z,19.39
2022-09-06T00:19:11.747Z,19.36
2022-09-06T00:20:11.799Z,19.35
2022-09-06T00:21:11.659Z,19.35
2022-09-06T00:22:11.638Z,19.32
2022-09-06T00:23:11.690Z,19.31
2022-09-06T00:24:34.598Z,19.29
2022-09-06T00:25:11.652Z,19.28
2022-09-06T00:26:11.670Z,19.25
2022-09-06T00:27:11.718Z,19.28
2022-09-06T00:28:11.608Z,19.29
2022-09-06T00:29:11.601Z,19.29
2022-09-06T00:30:11.599Z,19.32
2022-09-06T00:31:11.669Z,19.32
2022-09-06T00:32:11.527Z,19.33
2022-09-06T00:33:11.850Z,19.32
2022-09-06T00:34:11.781Z,19.31
2022-09-06T00:35:11.499Z,19.31
2022-09-06T00:36:11.618Z,19.29
2022-09-06T00:37:11.696Z,19.28
2022-09-06T00:38:11.561Z,19.28
2022-09-06T00:39:11.493Z,19.25
2022-09-06T00:40:11.817Z,19.24
2022-09-06T00:41:11.579Z,19.23
2022-09-06T00:42:11.381Z,19.25
2022-09-06T00:43:11.422Z,19.23
2022-09-06T00:44:11.569Z,19.23
2022-09-06T00:45:11.821Z,19.20
2022-09-06T00:46:11.398Z,19.18
2022-09-06T00:47:11.538Z,19.17
2022-09-06T00:48:11.478Z,19.13
2022-09-06T00:49:11.329Z,19.06
2022-09-06T00:50:11.441Z,19.02
2022-09-06T00:51:11.434Z,19.02
2022-09-06T00:52:11.368Z,18.98
2022-09-06T00:53:11.765Z,18.99
2022-09-06T00:54:11.329Z,18.98
2022-09-06T00:55:11.267Z,18.98
2022-09-06T00:56:11.209Z,18.97
2022-09-06T00:57:11.511Z,18.97
2022-09-06T00:58:11.291Z,18.97
2022-09-06T00:59:11.279Z,18.99
2022-09-06T01:00:11.181Z,18.99
2022-09-06T01:01:11.366Z,18.99
2022-09-06T01:02:11.216Z,18.99
2022-09-06T01:03:11.130Z,18.98
2022-09-06T01:04:11.117Z,18.98
2022-09-06T01:05:11.090Z,18.97
2022-09-06T01:06:11.073Z,18.95
2022-09-06T01:07:11.051Z,18.92
2022-09-06T01:08:11.053Z,18.92
2022-09-06T01:09:11.031Z,18.91
2022-09-06T01:10:11.058Z,18.87
2022-09-06T01:11:11.017Z,18.86
2022-09-06T01:12:10.982Z,18.86
2022-09-06T01:13:11.087Z,18.84
2022-09-06T01:14:10.930Z,18.82
2022-09-06T01:15:10.931Z,18.80
2022-09-06T01:16:25.565Z,18.79
2022-09-06T01:17:10.891Z,18.79
2022-09-06T01:18:10.911Z,18.76
2022-09-06T01:19:10.906Z,18.74
2022-09-06T01:20:10.876Z,18.73
2022-09-06T01:21:10.883Z,18.73
2022-09-06T01:22:10.822Z,18.72
2022-09-06T01:23:10.862Z,18.70
2022-09-06T01:24:10.822Z,18.70
2022-09-06T01:25:10.809Z,18.68
2022-09-06T01:26:10.793Z,18.67
2022-09-06T01:27:10.757Z,18.65
2022-09-06T01:28:10.772Z,18.62
2022-09-06T01:29:10.801Z,18.62
2022-09-06T01:30:10.735Z,18.61
2022-09-06T01:31:10.944Z,18.59
2022-09-06T01:32:10.723Z,18.55
2022-09-06T01:33:10.699Z,18.54
2022-09-06T01:34:10.699Z,18.50
2022-09-06T01:35:10.752Z,18.50
2022-09-06T01:36:10.681Z,18.49
2022-09-06T01:37:11.127Z,18.47
2022-09-06T01:38:10.678Z,18.46
2022-09-06T01:39:10.615Z,18.46
2022-09-06T01:40:10.678Z,18.44
2022-09-06T01:41:10.638Z,18.46
2022-09-06T01:42:10.628Z,18.47
2022-09-06T01:43:11.158Z,18.50
2022-09-06T01:44:10.581Z,18.52
2022-09-06T01:45:10.536Z,18.55
2022-09-06T01:46:10.550Z,18.52
2022-09-06T01:47:10.508Z,18.55
2022-09-06T01:48:10.699Z,18.55
2022-09-06T01:49:10.473Z,18.55
2022-09-06T01:50:10.473Z,18.58
2022-09-06T01:51:19.987Z,18.57
2022-09-06T01:52:11.423Z,18.59
2022-09-06T01:53:10.432Z,18.59
2022-09-06T01:54:10.442Z,18.57
2022-09-06T01:55:10.517Z,18.52
2022-09-06T01:56:10.390Z,18.50
2022-09-06T01:57:10.376Z,18.50
2022-09-06T01:58:10.456Z,18.52
2022-09-06T01:59:10.322Z,18.54
2022-09-06T02:00:10.344Z,18.50
2022-09-06T02:01:10.484Z,18.50
2022-09-06T02:02:10.368Z,18.49
2022-09-06T02:03:10.330Z,18.49
2022-09-06T02:04:10.301Z,18.49
2022-09-06T02:05:10.396Z,18.47
2022-09-06T02:06:10.275Z,18.46
2022-09-06T02:07:10.232Z,18.46
2022-09-06T02:08:10.391Z,18.47
2022-09-06T02:09:10.240Z,18.49
2022-09-06T02:10:10.294Z,18.52
2022-09-06T02:11:10.255Z,18.55
2022-09-06T02:12:10.204Z,18.58
2022-09-06T02:13:10.162Z,18.61
2022-09-06T02:14:10.167Z,18.62
2022-09-06T02:15:10.291Z,18.64
2022-09-06T02:16:10.169Z,18.64
2022-09-06T02:17:10.194Z,18.62
2022-09-06T02:18:10.106Z,18.61
2022-09-06T02:19:10.081Z,18.59
2022-09-06T02:20:10.100Z,18.58
2022-09-06T02:21:10.106Z,18.55
2022-09-06T02:22:10.072Z,18.55
2022-09-06T02:23:41.763Z,18.57
2022-09-06T02:24:09.992Z,18.58
2022-09-06T02:25:10.043Z,18.57
2022-09-06T02:26:10.127Z,18.57
2022-09-06T02:27:09.964Z,18.57
2022-09-06T02:28:09.945Z,18.57
2022-09-06T02:29:10.006Z,18.58
2022-09-06T02:30:15.137Z,18.58
2022-09-06T02:31:10.049Z,18.59
2022-09-06T02:32:09.892Z,18.61
2022-09-06T02:33:09.886Z,18.62
2022-09-06T02:34:09.864Z,18.68
2022-09-06T02:35:13.878Z,18.70
2022-09-06T02:36:09.877Z,18.72
2022-09-06T02:37:09.868Z,18.74
2022-09-06T02:38:09.944Z,18.76
2022-09-06T02:39:09.924Z,18.80
2022-09-06T02:40:09.834Z,18.83
2022-09-06T02:41:09.826Z,18.83
2022-09-06T02:42:09.798Z,18.86
2022-09-06T02:43:09.806Z,18.90
2022-09-06T02:44:09.746Z,18.92
2022-09-06T02:45:34.493Z,18.95
2022-09-06T02:46:09.742Z,18.95
2022-09-06T02:47:09.724Z,19.01
2022-09-06T02:48:09.914Z,19.01
2022-09-06T02:49:09.676Z,19.01
2022-09-06T02:50:09.656Z,19.10
2022-09-06T02:51:09.802Z,19.33
2022-09-06T02:52:09.627Z,19.53
2022-09-06T02:53:09.656Z,19.65
2022-09-06T02:54:09.616Z,19.68
2022-09-06T02:55:09.692Z,19.69
2022-09-06T02:56:09.627Z,19.69
2022-09-06T02:57:09.614Z,19.70
2022-09-06T02:58:09.596Z,19.72
2022-09-06T02:59:09.546Z,19.70
2022-09-06T03:00:09.542Z,19.73
2022-09-06T03:01:09.642Z,19.73
2022-09-06T03:02:09.570Z,19.73
2022-09-06T03:03:09.538Z,19.70
2022-09-06T03:04:09.466Z,19.68
2022-09-06T03:05:09.507Z,19.55
2022-09-06T03:06:09.455Z,19.47
2022-09-06T03:07:09.477Z,19.40
2022-09-06T03:08:09.456Z,19.28
2022-09-06T03:09:09.407Z,19.18
2022-09-06T03:10:09.397Z,19.13
2022-09-06T03:11:09.489Z,19.08
2022-09-06T03:12:09.384Z,19.01
2022-09-06T03:13:09.394Z,18.98
2022-09-06T03:14:13.778Z,18.95
2022-09-06T03:15:09.327Z,18.97
2022-09-06T03:16:09.321Z,18.97
2022-09-06T03:17:19.033Z,18.92
2022-09-06T03:18:10.408Z,18.91
2022-09-06T03:19:09.267Z,18.90
2022-09-06T03:20:09.315Z,18.87
2022-09-06T03:21:09.262Z,18.86
2022-09-06T03:22:09.315Z,18.87
2022-09-06T03:23:09.253Z,18.91
2022-09-06T03:24:09.246Z,18.90
2022-09-06T03:25:09.337Z,18.87
2022-09-06T03:26:09.231Z,18.82
2022-09-06T03:27:09.180Z,18.80
2022-09-06T03:28:09.206Z,18.83
2022-09-06T03:29:09.208Z,18.82
2022-09-06T03:30:09.118Z,18.80
2022-09-06T03:31:09.307Z,18.77
2022-09-06T03:32:09.099Z,18.82
2022-09-06T03:33:09.089Z,18.82
2022-09-06T03:34:11.140Z,18.82
2022-09-06T03:35:09.057Z,18.82
2022-09-06T03:36:09.034Z,18.77
2022-09-06T03:37:09.141Z,18.80
2022-09-06T03:38:09.066Z,18.86
2022-09-06T03:39:09.059Z,18.87
2022-09-06T03:40:09.385Z,18.84
2022-09-06T03:41:08.958Z,18.80
2022-09-06T03:42:08.958Z,18.80
2022-09-06T03:43:09.135Z,18.79
2022-09-06T03:44:08.968Z,18.74
2022-09-06T03:45:08.986Z,18.73
2022-09-06T03:46:13.869Z,18.82
2022-09-06T03:47:09.907Z,18.74
2022-09-06T03:48:08.898Z,18.55
2022-09-06T03:49:08.919Z,18.44
2022-09-06T03:50:08.918Z,18.34
2022-09-06T03:51:08.827Z,18.27
2022-09-06T03:52:08.824Z,18.19
2022-09-06T03:53:08.804Z,18.17
2022-09-06T03:54:15.949Z,18.12
2022-09-06T03:55:09.828Z,18.06
2022-09-06T03:56:08.810Z,18.03
2022-09-06T03:57:08.843Z,18.03
2022-09-06T03:58:08.780Z,18.00
2022-09-06T03:59:08.740Z,18.03
2022-09-06T04:00:15.001Z,18.06
2022-09-06T04:01:08.843Z,18.06
2022-09-06T04:02:08.704Z,18.07
2022-09-06T04:03:08.889Z,18.07
2022-09-06T04:04:08.687Z,18.07
2022-09-06T04:05:08.653Z,18.03
2022-09-06T04:06:33.326Z,17.99
2022-09-06T04:07:09.684Z,17.97
2022-09-06T04:08:08.613Z,17.95
2022-09-06T04:09:16.408Z,17.92
2022-09-06T04:10:08.567Z,17.97
2022-09-06T04:11:08.552Z,17.95
2022-09-06T04:12:08.579Z,17.99
2022-09-06T04:13:08.599Z,18.00
2022-09-06T04:14:08.526Z,17.99
2022-09-06T04:15:08.506Z,17.94
2022-09-06T04:16:08.617Z,17.92
2022-09-06T04:17:08.493Z,17.85
2022-09-06T04:18:09.336Z,17.82
2022-09-06T04:19:08.561Z,17.95
2022-09-06T04:20:08.430Z,18.03
2022-09-06T04:21:08.431Z,18.03
2022-09-06T04:22:08.633Z,18.04
2022-09-06T04:23:08.411Z,18.00
2022-09-06T04:24:08.386Z,17.99
2022-09-06T04:25:08.575Z,17.99
2022-09-06T04:26:08.363Z,17.95
2022-09-06T04:27:08.431Z,17.92
2022-09-06T04:29:18.226Z,17.97
2022-09-06T04:30:18.227Z,18.00
2022-09-06T04:31:18.327Z,17.97
2022-09-06T04:32:18.241Z,17.95
2022-09-06T04:33:18.256Z,17.97
2022-09-06T04:34:18.207Z,17.97
2022-09-06T04:35:18.118Z,17.97
2022-09-06T04:36:18.277Z,18.02
2022-09-06T04:37:18.075Z,18.00
2022-09-06T04:38:18.070Z,18.02
2022-09-06T04:39:18.221Z,18.00
2022-09-06T04:40:18.058Z,17.99
2022-09-06T04:41:18.039Z,17.95
2022-09-06T04:42:24.565Z,17.95
2022-09-06T04:43:18.991Z,17.94
2022-09-06T04:44:18.035Z,17.92
2022-09-06T04:45:17.968Z,17.94
2022-09-06T04:46:18.172Z,17.92
2022-09-06T04:47:17.942Z,17.88
2022-09-06T04:48:17.970Z,17.87
2022-09-06T04:49:17.909Z,17.84
2022-09-06T04:50:17.894Z,17.82
2022-09-06T04:51:18.020Z,17.78
2022-09-06T04:52:17.888Z,17.74
2022-09-06T04:53:17.848Z,17.74
2022-09-06T04:54:18.007Z,17.82
2022-09-06T04:55:17.818Z,17.85
2022-09-06T04:56:17.921Z,17.88
2022-09-06T04:57:17.798Z,17.88
2022-09-06T04:58:17.860Z,17.91
2022-09-06T04:59:17.752Z,17.94
2022-09-06T05:00:17.848Z,17.94
2022-09-06T05:01:17.832Z,17.92
2022-09-06T05:02:17.843Z,17.95
2022-09-06T05:03:17.733Z,17.97
2022-09-06T05:04:17.768Z,17.95
2022-09-06T05:05:17.721Z,17.94
2022-09-06T05:12:07.097Z,17.91
2022-09-06T05:13:06.987Z,17.91
2022-09-06T05:14:07.079Z,17.91
2022-09-06T05:15:06.949Z,17.94
2022-09-06T05:16:06.985Z,17.94
2022-09-06T05:17:06.948Z,17.97
2022-09-06T05:18:06.935Z,17.99
2022-09-06T05:19:06.901Z,17.99
2022-09-06T05:20:06.922Z,17.99
2022-09-06T05:21:06.876Z,17.99
2022-09-06T05:22:06.937Z,17.99
2022-09-06T05:23:06.873Z,18.00
2022-09-06T05:24:06.867Z,18.02
2022-09-06T05:25:06.882Z,18.03
2022-09-06T05:26:06.813Z,18.03
2022-09-06T05:27:06.801Z,18.09
2022-09-06T05:28:06.832Z,18.10
2022-09-06T05:29:06.817Z,18.13
2022-09-06T05:30:07.173Z,18.15
2022-09-06T05:31:06.867Z,18.18
2022-09-06T05:32:06.811Z,18.22
2022-09-06T05:33:06.704Z,18.27
2022-09-06T05:35:16.717Z,18.43
2022-09-06T05:36:16.718Z,18.46
2022-09-06T05:37:16.722Z,18.50
2022-09-06T05:38:16.677Z,18.49
2022-09-06T05:39:16.671Z,18.52
2022-09-06T05:40:23.042Z,18.50
2022-09-06T05:41:17.671Z,18.52
2022-09-06T05:42:19.247Z,18.55
2022-09-06T05:43:16.652Z,18.58
2022-09-06T05:44:16.564Z,18.67
2022-09-06T05:45:16.538Z,18.74
2022-09-06T05:46:16.793Z,18.74
2022-09-06T05:47:16.517Z,18.74
2022-09-06T05:48:16.538Z,18.76
2022-09-06T05:49:16.467Z,18.76
2022-09-06T05:50:16.611Z,18.74
2022-09-06T05:51:16.517Z,18.73
2022-09-06T05:52:16.447Z,18.67
2022-09-06T05:53:16.401Z,18.65
2022-09-06T05:54:16.455Z,18.67
2022-09-06T05:55:16.438Z,18.68
2022-09-06T05:56:16.400Z,18.67
2022-09-06T05:57:16.457Z,18.70
2022-09-06T05:58:16.370Z,18.72
2022-09-06T05:59:16.354Z,18.76
2022-09-06T06:00:16.492Z,18.74
2022-09-06T06:01:16.394Z,18.77
2022-09-06T06:02:16.435Z,18.80
2022-09-06T06:03:16.503Z,18.83
2022-09-06T06:04:16.311Z,18.84
2022-09-06T06:05:16.268Z,18.83
2022-09-06T06:06:16.298Z,18.86
2022-09-06T06:07:16.371Z,18.86
2022-09-06T06:08:16.322Z,18.84
2022-09-06T06:09:16.301Z,18.72
2022-09-06T06:10:16.200Z,18.73
2022-09-06T06:11:51.468Z,18.77
2022-09-06T06:12:16.161Z,18.80
2022-09-06T06:13:50.212Z,18.80
2022-09-06T06:14:17.247Z,18.83
2022-09-06T06:15:16.123Z,18.84
2022-09-06T06:16:16.171Z,18.91
2022-09-06T06:17:16.122Z,18.92
2022-09-06T06:18:16.189Z,18.97
2022-09-06T06:19:16.071Z,18.99
2022-09-06T06:20:16.118Z,19.05
2022-09-06T06:21:16.055Z,19.08
2022-09-06T06:22:16.075Z,19.14
2022-09-06T06:23:16.052Z,19.20
2022-09-06T06:24:16.019Z,19.23
2022-09-06T06:25:16.217Z,19.21
2022-09-06T06:26:15.994Z,19.21
2022-09-06T06:27:16.012Z,19.21
2022-09-06T06:28:15.960Z,19.24
2022-09-06T06:29:45.871Z,19.28
2022-09-06T06:30:18.428Z,19.28
2022-09-06T06:31:15.974Z,19.29
2022-09-06T06:32:15.925Z,19.29
2022-09-06T06:33:16.000Z,19.29
2022-09-06T06:34:15.938Z,19.18
2022-09-06T06:35:15.881Z,19.15
2022-09-06T06:36:15.834Z,19.15
2022-09-06T06:37:15.830Z,19.18
2022-09-06T06:38:15.880Z,19.21
2022-09-06T06:39:15.794Z,19.20
2022-09-06T06:40:15.833Z,19.20
2022-09-06T06:41:15.824Z,19.21
2022-09-06T06:42:15.863Z,19.21
2022-09-06T06:43:15.749Z,19.21
2022-09-06T06:44:15.752Z,19.25
2022-09-06T06:45:15.723Z,19.23
2022-09-06T06:46:15.783Z,19.17
2022-09-06T06:47:15.691Z,19.18
2022-09-06T06:48:15.770Z,19.23
2022-09-06T06:49:25.783Z,19.25
2022-09-06T06:50:15.682Z,19.29
2022-09-06T06:51:15.693Z,19.32
2022-09-06T06:52:15.767Z,19.35
2022-09-06T06:53:15.622Z,19.42
2022-09-06T06:54:15.639Z,19.43
2022-09-06T06:55:15.836Z,19.46
2022-09-06T06:56:15.590Z,19.50
2022-09-06T06:57:15.582Z,19.55
2022-09-06T06:58:15.594Z,19.51
2022-09-06T06:59:15.641Z,19.53
2022-09-06T07:00:15.574Z,19.60
2022-09-06T07:01:15.619Z,19.58
2022-09-06T07:02:15.678Z,19.61
2022-09-06T07:03:15.579Z,19.61
2022-09-06T07:04:15.473Z,19.70
2022-09-06T07:06:16.517Z,19.76
2022-09-06T07:07:31.254Z,19.70
2022-09-06T07:08:16.454Z,19.66
2022-09-06T07:09:15.417Z,19.65
2022-09-06T07:11:16.827Z,19.69
2022-09-06T07:12:15.403Z,19.66
2022-09-06T07:13:15.364Z,19.68
2022-09-06T07:14:15.345Z,19.66
2022-09-06T07:15:15.316Z,19.69
2022-09-06T07:16:46.731Z,19.78
2022-09-06T07:17:15.338Z,19.84
2022-09-06T07:18:15.353Z,19.88
2022-09-06T07:20:16.713Z,19.98
2022-09-06T07:22:16.267Z,19.97
2022-09-06T07:24:16.228Z,20.08
2022-09-06T07:25:19.041Z,20.12
2022-09-06T07:26:16.324Z,19.97
2022-09-06T07:28:16.186Z,20.13
2022-09-06T07:29:15.252Z,20.18
2022-09-06T07:30:15.137Z,20.24
2022-09-06T07:32:16.207Z,20.49
2022-09-06T07:33:15.079Z,20.56
2022-09-06T07:34:15.068Z,20.66
2022-09-06T07:35:15.232Z,20.74
2022-09-06T07:36:15.086Z,20.80
2022-09-06T07:37:15.082Z,20.91
2022-09-06T07:38:15.019Z,20.98
2022-09-06T07:39:15.087Z,21.08
2022-09-06T07:40:16.090Z,21.19
2022-09-06T07:41:15.063Z,21.29
2022-09-06T07:42:14.996Z,21.35
2022-09-06T07:43:14.967Z,21.42
2022-09-06T07:44:15.073Z,21.51
2022-09-06T07:45:14.936Z,21.53
2022-09-06T07:46:15.082Z,21.46
2022-09-06T07:48:15.906Z,21.53
2022-09-06T07:49:14.925Z,21.61
2022-09-06T07:51:16.104Z,21.66
2022-09-06T07:53:23.016Z,21.71
2022-09-06T07:54:31.802Z,21.72
2022-09-06T07:55:15.848Z,21.76
2022-09-06T07:56:14.785Z,21.78
2022-09-06T07:57:27.082Z,21.83
2022-09-06T07:58:14.869Z,21.85
2022-09-06T07:59:14.762Z,21.91
2022-09-06T08:00:14.968Z,21.95
2022-09-06T08:01:15.798Z,22.02
2022-09-06T08:02:14.776Z,22.02
2022-09-06T08:03:15.060Z,22.07
2022-09-06T08:04:14.676Z,22.07
2022-09-06T08:06:15.866Z,22.20
2022-09-06T08:09:15.630Z,22.47
2022-09-06T08:10:18.645Z,22.59
2022-09-06T08:11:14.606Z,22.71
2022-09-06T08:12:14.589Z,22.82
2022-09-06T08:13:14.687Z,22.92
2022-09-06T08:14:14.550Z,23.04
2022-09-06T08:15:14.563Z,23.11
2022-09-06T08:17:24.436Z,23.32
2022-09-06T08:18:24.367Z,23.43
2022-09-06T08:19:24.370Z,23.43
2022-09-06T08:20:24.374Z,23.52
2022-09-06T08:21:24.310Z,23.62
2022-09-06T08:22:24.309Z,23.71
2022-09-06T08:23:24.320Z,23.80
2022-09-06T08:24:24.393Z,23.89
2022-09-06T08:25:24.503Z,23.92
2022-09-06T08:26:24.240Z,23.71
2022-09-06T08:27:24.299Z,23.76
2022-09-06T08:28:28.120Z,23.89
2022-09-06T08:29:24.222Z,24.00
2022-09-06T08:30:24.246Z,24.10
2022-09-06T08:31:24.283Z,24.22
2022-09-06T08:32:24.182Z,24.29
2022-09-06T08:33:24.143Z,24.31
2022-09-06T08:34:24.152Z,24.37
2022-09-06T08:35:24.129Z,24.42
2022-09-06T08:36:24.209Z,24.42
2022-09-06T08:37:25.152Z,24.24
2022-09-06T08:38:24.102Z,24.04
2022-09-06T08:39:24.189Z,23.94
2022-09-06T08:40:24.232Z,23.94
2022-09-06T08:41:24.089Z,24.00
2022-09-06T08:42:24.101Z,24.04
2022-09-06T08:43:24.343Z,24.07
2022-09-06T08:45:25.029Z,24.16
2022-09-06T08:46:24.234Z,24.14
2022-09-06T08:47:36.327Z,24.14
2022-09-06T08:48:25.013Z,24.16
2022-09-06T08:49:23.953Z,24.20
2022-09-06T08:50:24.044Z,24.26
2022-09-06T08:51:23.953Z,24.31
2022-09-06T08:52:23.923Z,24.34
2022-09-06T08:53:23.910Z,24.38
2022-09-06T08:54:23.934Z,24.39
2022-09-06T08:55:23.911Z,24.35
2022-09-06T08:56:23.837Z,24.35
2022-09-06T08:57:23.872Z,24.34
2022-09-06T08:58:23.874Z,24.24
2022-09-06T08:59:23.804Z,24.23
2022-09-06T09:00:23.863Z,24.27
2022-09-06T09:01:23.763Z,24.24
2022-09-06T09:02:23.801Z,24.26
2022-09-06T09:03:23.784Z,24.24
2022-09-06T09:04:23.721Z,24.24
2022-09-06T09:05:23.718Z,24.20
2022-09-06T09:06:23.714Z,24.19
2022-09-06T09:07:23.684Z,24.19
2022-09-06T09:08:23.771Z,24.22
2022-09-06T09:09:23.654Z,24.24
2022-09-06T09:10:23.800Z,24.27
2022-09-06T09:11:23.634Z,24.32
2022-09-06T09:12:23.653Z,24.41
2022-09-06T09:13:23.700Z,24.47
2022-09-06T09:14:23.617Z,24.52
2022-09-06T09:15:23.591Z,24.59
2022-09-06T09:16:23.760Z,24.64
2022-09-06T09:17:23.639Z,24.68
2022-09-06T09:18:23.593Z,24.68
2022-09-06T09:19:23.545Z,24.73
2022-09-06T09:20:23.699Z,24.77
2022-09-06T09:21:28.148Z,24.85
2022-09-06T09:22:24.505Z,24.88
2022-09-06T09:23:23.590Z,24.91
2022-09-06T09:24:23.472Z,24.91
2022-09-06T09:25:23.497Z,24.92
2022-09-06T09:26:23.457Z,24.91
2022-09-06T09:27:23.433Z,24.92
2022-09-06T09:28:23.678Z,24.95
2022-09-06T09:29:28.072Z,24.98
2022-09-06T09:31:24.499Z,25.09
2022-09-06T09:32:23.386Z,25.16
2022-09-06T09:33:23.497Z,25.20
2022-09-06T09:34:23.426Z,25.27
2022-09-06T09:35:23.339Z,25.31
2022-09-06T09:36:23.297Z,25.35
2022-09-06T09:38:24.437Z,25.35
2022-09-06T09:39:23.353Z,25.34
2022-09-06T09:40:23.250Z,25.32
2022-09-06T09:41:49.919Z,25.35
2022-09-06T09:42:23.398Z,25.38
2022-09-06T09:43:23.227Z,25.42
2022-09-06T09:44:23.252Z,25.44
2022-09-06T09:45:23.220Z,25.43
2022-09-06T09:46:23.203Z,25.43
2022-09-06T09:47:23.158Z,25.44
2022-09-06T09:48:23.271Z,25.44
2022-09-06T09:49:23.729Z,25.43
2022-09-06T09:50:23.209Z,25.46
2022-09-06T09:51:27.136Z,25.49
2022-09-06T09:52:23.134Z,25.53
2022-09-06T09:53:23.144Z,25.56
2022-09-06T09:54:23.204Z,25.59
2022-09-06T09:55:23.100Z,25.62
2022-09-06T09:56:23.220Z,25.62
2022-09-06T09:57:23.058Z,25.64
2022-09-06T09:58:23.213Z,25.67
2022-09-06T09:59:23.094Z,25.71
2022-09-06T10:00:23.042Z,25.79
2022-09-06T10:01:23.067Z,25.82
2022-09-06T10:02:22.972Z,25.82
2022-09-06T10:03:23.202Z,25.75
2022-09-06T10:05:23.936Z,25.74
2022-09-06T10:07:23.900Z,25.77
2022-09-06T10:08:22.923Z,25.80
2022-09-06T10:09:22.975Z,25.83
2022-09-06T10:10:22.861Z,25.87
2022-09-06T10:11:23.022Z,25.91
2022-09-06T10:12:22.802Z,25.93
2022-09-06T10:13:22.924Z,25.94
2022-09-06T10:14:22.793Z,25.94
2022-09-06T10:15:22.834Z,25.99
2022-09-06T10:16:23.117Z,26.05
2022-09-06T10:17:22.773Z,26.12
2022-09-06T10:18:22.757Z,26.12
2022-09-06T10:19:22.731Z,26.15
2022-09-06T10:20:22.759Z,26.15
2022-09-06T10:21:22.743Z,26.18
2022-09-06T10:22:22.872Z,26.24
2022-09-06T10:25:22.677Z,26.46
2022-09-06T10:26:22.637Z,26.54
2022-09-06T10:27:22.794Z,26.59
2022-09-06T10:28:23.754Z,26.67
2022-09-06T10:29:22.592Z,26.73
2022-09-06T10:30:22.579Z,26.79
2022-09-06T10:31:22.595Z,26.80
2022-09-06T10:32:22.556Z,26.84
2022-09-06T10:33:22.525Z,26.84
2022-09-06T10:34:22.583Z,26.83
2022-09-06T10:35:45.193Z,26.84
2022-09-06T10:36:23.492Z,26.86
2022-09-06T10:37:22.528Z,26.91
2022-09-06T10:38:22.564Z,26.94
2022-09-06T10:39:22.486Z,26.96
2022-09-06T10:40:22.482Z,27.01
2022-09-06T10:41:22.458Z,27.02
2022-09-06T10:42:22.522Z,27.02
2022-09-06T10:43:22.428Z,27.01
2022-09-06T10:44:22.424Z,26.98
2022-09-06T10:45:22.402Z,27.04
2022-09-06T10:46:22.606Z,27.06
2022-09-06T10:47:22.337Z,27.13
2022-09-06T10:48:22.378Z,27.19
2022-09-06T10:49:22.416Z,27.28
2022-09-06T10:50:22.301Z,27.33
2022-09-06T10:51:22.361Z,27.39
2022-09-06T10:52:22.372Z,27.39
2022-09-06T10:53:22.316Z,27.42
2022-09-06T10:54:22.258Z,27.43
2022-09-06T10:55:22.235Z,27.41
2022-09-06T10:56:22.325Z,27.39
2022-09-06T10:58:23.696Z,27.32
2022-09-06T10:59:38.443Z,27.29
2022-09-06T11:00:23.222Z,27.28
2022-09-06T11:01:22.335Z,27.26
2022-09-06T11:02:22.259Z,27.28
2022-09-06T11:04:23.161Z,27.29
2022-09-06T11:06:25.460Z,27.31
2022-09-06T11:07:23.195Z,27.35
2022-09-06T11:09:23.108Z,27.35
2022-09-06T11:10:22.221Z,27.33
2022-09-06T11:11:22.041Z,27.29
2022-09-06T11:12:22.028Z,27.26
2022-09-06T11:13:22.140Z,27.17
2022-09-06T11:14:22.011Z,27.17
2022-09-06T11:15:21.982Z,27.14
2022-09-06T11:16:22.046Z,27.10
2022-09-06T11:17:22.005Z,27.06
2022-09-06T11:18:21.995Z,27.05
2022-09-06T11:19:21.915Z,27.05
2022-09-06T11:20:21.913Z,27.06
2022-09-06T11:21:45.505Z,27.09
2022-09-06T11:22:21.864Z,27.10
2022-09-06T11:23:21.863Z,27.16
2022-09-06T11:24:21.847Z,27.19
2022-09-06T11:25:21.922Z,27.20
2022-09-06T11:26:21.831Z,27.14
2022-09-06T11:27:21.913Z,27.10
2022-09-06T11:28:21.795Z,27.10
2022-09-06T11:29:21.829Z,27.05
2022-09-06T11:30:21.754Z,27.01
2022-09-06T11:32:22.814Z,26.92
2022-09-06T11:33:21.754Z,26.95
2022-09-06T11:34:21.816Z,26.98
2022-09-06T11:35:21.717Z,26.99
2022-09-06T11:36:21.764Z,27.01
2022-09-06T11:37:21.686Z,27.01
2022-09-06T11:38:21.693Z,27.01
2022-09-06T11:41:21.626Z,27.04
2022-09-06T11:42:33.238Z,27.06
2022-09-06T11:43:21.627Z,27.11
2022-09-06T11:44:21.638Z,27.11
2022-09-06T11:45:21.760Z,27.10
2022-09-06T11:46:21.578Z,27.11
2022-09-06T11:47:21.625Z,27.14
2022-09-06T11:48:21.572Z,27.19
2022-09-06T11:49:21.608Z,27.23
2022-09-06T11:50:21.737Z,27.24
2022-09-06T11:51:21.573Z,27.32
2022-09-06T11:52:21.491Z,27.32
2022-09-06T11:53:21.450Z,27.33
2022-09-06T11:54:21.575Z,27.32
2022-09-06T11:55:22.954Z,27.32
2022-09-06T11:56:21.433Z,27.32
2022-09-06T11:57:21.418Z,27.35
2022-09-06T11:58:21.463Z,27.38
2022-09-06T11:59:21.492Z,27.43
2022-09-06T12:00:21.364Z,27.47
2022-09-06T12:01:21.431Z,27.48
2022-09-06T12:02:21.621Z,27.50
2022-09-06T12:04:22.392Z,27.53
2022-09-06T12:05:21.279Z,27.61
2022-09-06T12:06:21.675Z,27.67
2022-09-06T12:07:21.282Z,27.70
2022-09-06T12:08:21.390Z,27.71
2022-09-06T12:09:21.433Z,27.70
2022-09-06T12:10:21.258Z,27.71
2022-09-06T12:11:21.246Z,27.74
2022-09-06T12:12:21.289Z,27.76
2022-09-06T12:13:21.231Z,27.77
2022-09-06T12:14:21.288Z,27.82
2022-09-06T12:15:21.154Z,27.84
2022-09-06T12:16:21.200Z,27.85
2022-09-06T12:17:21.153Z,27.86
2022-09-06T12:18:21.271Z,27.89
2022-09-06T12:19:21.248Z,27.91
2022-09-06T12:20:21.288Z,27.96
2022-09-06T12:21:28.380Z,27.98
2022-09-06T12:22:21.102Z,28.04
2022-09-06T12:23:21.761Z,28.04
2022-09-06T12:24:21.045Z,28.06
2022-09-06T12:25:21.072Z,28.10
2022-09-06T12:26:21.130Z,28.09
2022-09-06T12:27:20.993Z,28.11
2022-09-06T12:28:21.028Z,28.14
2022-09-06T12:29:21.031Z,28.17
2022-09-06T12:30:20.941Z,28.19
2022-09-06T12:31:21.001Z,28.19
2022-09-06T12:32:20.957Z,28.17
2022-09-06T12:33:20.930Z,28.17
2022-09-06T12:34:20.891Z,28.21
2022-09-06T12:36:21.863Z,28.23
2022-09-06T12:37:20.868Z,28.21
2022-09-06T12:38:20.874Z,28.19
2022-09-06T12:39:20.831Z,28.19
2022-09-06T12:40:20.923Z,28.22
2022-09-06T12:41:20.826Z,28.29
2022-09-06T12:42:20.784Z,28.32
2022-09-06T12:43:20.805Z,28.31
2022-09-06T12:44:20.814Z,28.26
2022-09-06T12:45:23.990Z,28.26
2022-09-06T12:46:21.825Z,28.29
2022-09-06T12:47:20.748Z,28.35
2022-09-06T12:48:20.689Z,28.40
2022-09-06T12:49:20.682Z,28.40
2022-09-06T12:50:20.739Z,28.40
2022-09-06T12:51:20.797Z,28.40
2022-09-06T12:52:20.658Z,28.44
2022-09-06T12:53:23.312Z,28.41
2022-09-06T12:54:20.733Z,28.38
2022-09-06T12:55:20.614Z,28.38
2022-09-06T12:56:20.809Z,28.35
2022-09-06T12:57:20.604Z,28.33
2022-09-06T12:58:20.594Z,28.36
2022-09-06T12:59:20.571Z,28.36
2022-09-06T13:00:20.592Z,28.40
2022-09-06T13:01:20.704Z,28.46
2022-09-06T13:02:20.710Z,28.48
2022-09-06T13:03:20.527Z,28.51
2022-09-06T13:04:20.498Z,28.48
2022-09-06T13:05:20.567Z,28.48
2022-09-06T13:06:26.082Z,28.54
2022-09-06T13:07:21.448Z,28.59
2022-09-06T13:08:20.429Z,28.60
2022-09-06T13:09:20.435Z,28.65
2022-09-06T13:10:20.418Z,28.70
2022-09-06T13:11:20.408Z,28.73
2022-09-06T13:12:20.410Z,28.81
2022-09-06T13:13:20.423Z,28.84
2022-09-06T13:14:20.362Z,28.84
2022-09-06T13:15:20.389Z,28.84
2022-09-06T13:16:20.415Z,28.85
2022-09-06T13:17:20.363Z,28.88
2022-09-06T13:18:20.435Z,28.88
2022-09-06T13:19:20.362Z,28.88
2022-09-06T13:20:20.396Z,28.88
2022-09-06T13:21:20.300Z,28.90
2022-09-06T13:22:20.274Z,28.93
2022-09-06T13:23:20.291Z,28.90
2022-09-06T13:24:20.258Z,28.85
2022-09-06T13:25:20.952Z,28.81
2022-09-06T13:26:20.222Z,28.80
2022-09-06T13:27:20.280Z,28.82
2022-09-06T13:28:20.227Z,28.85
2022-09-06T13:29:20.185Z,28.90
2022-09-06T13:30:20.148Z,28.85